Time;durP1;ratioP1;P1;durP2;ratioP2;P2;SDS_P1;SDS_P2;PMS_P1;PMS_P2;Temp;Humidity;BMP_temperature;BMP_pressure;BME280_temperature;BME280_humidity;BME280_pressure;Samples;Min_cycle;Max_cycle;Signal;HPM_P1;HPM_P2
2021/05/16 00:00:36;;;;;;;3.00;0.98;;;;;;;10.13;77.61;99426.38;5006064;28;20068;-79
2021/05/16 00:03:02;;;;;;;3.53;1.40;;;;;;;10.07;78.04;99422.97;5006489;28;20132;-79
2021/05/16 00:05:29;;;;;;;3.63;1.20;;;;;;;10.03;77.59;99420.41;5003222;28;20121;-79
2021/05/16 00:07:54;;;;;;;2.63;1.38;;;;;;;9.96;77.51;99418.84;5004939;28;20091;-79
2021/05/16 00:10:24;;;;;;;4.30;1.30;;;;;;;9.88;77.71;99416.38;5028299;28;20042;-79
2021/05/16 00:12:50;;;;;;;3.40;1.75;;;;;;;9.82;77.79;99421.75;4996652;28;20052;-79
2021/05/16 00:15:18;;;;;;;5.38;1.35;;;;;;;9.77;78.14;99421.88;5012947;28;20035;-79
2021/05/16 00:17:43;;;;;;;4.95;1.27;;;;;;;9.71;80.33;99424.59;5003357;28;20035;-79
2021/05/16 00:20:12;;;;;;;3.25;1.30;;;;;;;9.72;79.61;99420.19;5006304;28;20615;-79
2021/05/16 00:22:39;;;;;;;2.20;1.20;;;;;;;9.68;79.06;99421.16;5005241;28;20034;-79
2021/05/16 00:25:08;;;;;;;3.65;1.17;;;;;;;9.63;79.14;99411.59;5006893;28;20027;-79
2021/05/16 00:27:35;;;;;;;2.92;1.08;;;;;;;9.59;79.31;99412.56;5007413;28;20056;-79
2021/05/16 00:30:01;;;;;;;2.60;1.10;;;;;;;9.52;79.41;99421.47;5011830;28;20042;-79
2021/05/16 00:32:26;;;;;;;3.63;1.30;;;;;;;9.49;79.83;99418.91;5006288;28;20479;-79
2021/05/16 00:34:51;;;;;;;3.47;1.40;;;;;;;9.47;80.06;99412.78;5009568;28;20030;-79
2021/05/16 00:37:17;;;;;;;2.22;1.10;;;;;;;9.43;80.39;99408.47;5008985;28;20053;-78
2021/05/16 00:39:43;;;;;;;3.38;1.20;;;;;;;9.46;80.82;99408.44;5023882;28;20739;-79
2021/05/16 00:42:08;;;;;;;2.42;1.30;;;;;;;9.55;80.62;99410.00;5009810;28;20045;-79
2021/05/16 00:44:33;;;;;;;3.05;1.38;;;;;;;9.68;80.12;99408.88;5008823;28;20101;-80
2021/05/16 00:46:59;;;;;;;4.40;1.40;;;;;;;9.81;79.93;99398.94;5008679;28;20038;-79
2021/05/16 00:49:24;;;;;;;3.30;1.30;;;;;;;9.93;80.05;99403.97;5016254;28;20404;-79
2021/05/16 00:51:50;;;;;;;4.25;1.08;;;;;;;10.03;79.67;99399.34;5025215;28;20029;-79
2021/05/16 00:54:17;;;;;;;2.33;1.30;;;;;;;10.07;78.98;99396.59;5030226;28;20117;-79
2021/05/16 00:56:43;;;;;;;3.08;1.40;;;;;;;10.04;79.17;99396.69;5018027;28;20038;-79
2021/05/16 00:59:08;;;;;;;2.92;0.93;;;;;;;9.97;79.06;99389.78;5005999;28;20117;-79
2021/05/16 01:01:34;;;;;;;2.22;1.00;;;;;;;9.86;79.43;99394.44;4990988;28;20034;-79
2021/05/16 01:03:59;;;;;;;4.15;1.20;;;;;;;9.74;79.68;99397.31;5031779;28;20029;-80
2021/05/16 01:06:25;;;;;;;2.22;1.23;;;;;;;9.69;79.32;99396.56;5016696;28;20110;-79
2021/05/16 01:08:56;;;;;;;4.07;1.00;;;;;;;9.65;79.57;99391.34;5029243;28;20034;-80
2021/05/16 01:11:22;;;;;;;4.78;1.17;;;;;;;9.61;79.26;99396.69;5010654;28;20046;-79
2021/05/16 01:13:50;;;;;;;2.10;1.00;;;;;;;9.54;79.72;99409.16;5005438;28;20038;-79
2021/05/16 01:16:16;;;;;;;3.45;1.25;;;;;;;9.48;79.77;99409.25;5008977;28;20038;-79
2021/05/16 01:18:43;;;;;;;3.60;1.15;;;;;;;9.38;79.95;99394.56;5000664;28;20038;-80
2021/05/16 01:21:09;;;;;;;2.47;0.90;;;;;;;9.29;79.56;99400.84;5009603;28;20084;-79
2021/05/16 01:23:46;;;;;;;3.30;1.10;;;;;;;9.15;79.58;99411.63;5007859;28;20113;-80
2021/05/16 01:26:15;;;;;;;3.80;1.10;;;;;;;8.98;80.12;99408.44;5022588;28;20092;-79
2021/05/16 01:28:43;;;;;;;4.43;1.38;;;;;;;8.83;81.47;99420.09;5008644;28;20112;-79
2021/05/16 01:31:10;;;;;;;3.38;1.33;;;;;;;8.74;80.92;99426.38;5015515;28;20037;-79
2021/05/16 01:33:36;;;;;;;3.03;1.20;;;;;;;8.65;80.79;99433.56;5007553;28;20440;-79
2021/05/16 01:36:02;;;;;;;2.45;1.30;;;;;;;8.60;81.29;99435.41;5012972;28;20042;-79
2021/05/16 01:38:28;;;;;;;2.22;1.20;;;;;;;8.55;81.57;99431.06;5000226;28;20068;-79
2021/05/16 01:40:53;;;;;;;2.10;1.20;;;;;;;8.49;81.18;99435.56;5014447;28;20034;-79
2021/05/16 01:43:37;;;;;;;2.85;1.25;;;;;;;8.45;81.20;99439.13;5008138;28;20026;-79
2021/05/16 01:46:04;;;;;;;2.50;1.05;;;;;;;8.37;81.67;99436.56;5017263;28;20033;-79
2021/05/16 01:48:29;;;;;;;2.00;0.95;;;;;;;8.38;81.88;99445.31;5040357;28;20137;-78
2021/05/16 01:50:55;;;;;;;1.83;1.00;;;;;;;8.43;82.00;99436.50;5024802;28;20034;-79
2021/05/16 01:53:21;;;;;;;2.08;1.00;;;;;;;8.52;82.31;99432.88;5015807;28;20041;-79
2021/05/16 01:55:46;;;;;;;3.63;1.45;;;;;;;8.62;82.10;99438.84;5016530;28;20046;-79
2021/05/16 01:58:11;;;;;;;2.88;1.17;;;;;;;8.70;81.87;99437.00;5017802;28;20026;-79
2021/05/16 02:00:41;;;;;;;2.38;1.23;;;;;;;8.76;81.49;99437.75;5015314;28;20046;-79
2021/05/16 02:03:14;;;;;;;2.15;1.05;;;;;;;8.85;81.78;99436.72;5015469;28;20493;-79
2021/05/16 02:05:43;;;;;;;1.83;1.17;;;;;;;8.89;81.49;99430.50;5033246;28;20038;-79
2021/05/16 02:08:09;;;;;;;2.58;1.30;;;;;;;8.95;81.70;99440.06;5039978;28;20033;-79
2021/05/16 02:10:37;;;;;;;3.63;1.00;;;;;;;9.08;81.79;99438.09;5025360;28;20045;-79
2021/05/16 02:13:08;;;;;;;2.07;1.07;;;;;;;9.11;81.95;99431.00;5022634;28;20049;-80
2021/05/16 02:15:35;;;;;;;2.38;1.10;;;;;;;9.25;81.19;99430.78;5035235;28;20602;-80
2021/05/16 02:18:02;;;;;;;2.72;1.35;;;;;;;9.43;80.80;99443.59;5014586;28;20069;-80
2021/05/16 02:20:28;;;;;;;1.60;0.90;;;;;;;9.56;80.82;99441.59;5017787;28;20037;-80
2021/05/16 02:22:54;;;;;;;3.53;1.10;;;;;;;9.72;80.58;99441.28;5018553;28;20029;-80
2021/05/16 02:25:20;;;;;;;1.95;0.95;;;;;;;9.81;80.42;99435.84;5014347;28;20054;-80
2021/05/16 02:27:47;;;;;;;2.45;1.05;;;;;;;9.90;79.77;99429.50;5022220;28;20030;-80
2021/05/16 02:30:15;;;;;;;1.85;1.00;;;;;;;9.96;80.01;99430.25;5017924;28;20036;-80
2021/05/16 02:32:41;;;;;;;2.58;1.48;;;;;;;9.97;79.90;99431.97;5020041;28;20056;-80
2021/05/16 02:35:11;;;;;;;2.30;1.20;;;;;;;9.97;79.94;99431.97;5025885;28;20116;-80
2021/05/16 02:37:54;;;;;;;2.75;1.40;;;;;;;9.99;79.79;99430.19;5016399;28;20037;-80
2021/05/16 02:40:19;;;;;;;2.63;1.40;;;;;;;10.03;79.66;99436.25;5014659;28;20121;-79
2021/05/16 02:42:45;;;;;;;3.00;1.25;;;;;;;10.08;79.75;99440.50;5025944;28;20037;-80
2021/05/16 02:45:13;;;;;;;2.42;1.30;;;;;;;10.20;79.97;99435.88;5017028;28;20076;-80
2021/05/16 02:47:39;;;;;;;2.50;1.20;;;;;;;10.29;79.17;99439.19;5023372;28;20038;-80
2021/05/16 02:50:07;;;;;;;2.33;1.30;;;;;;;10.34;79.53;99441.75;5024869;28;20030;-80
2021/05/16 02:52:52;;;;;;;2.80;1.55;;;;;;;10.31;79.60;99441.81;5017857;28;20051;-80
2021/05/16 02:55:22;;;;;;;1.88;1.15;;;;;;;10.33;79.53;99445.28;5038360;28;20552;-80
2021/05/16 02:57:47;;;;;;;3.35;1.42;;;;;;;10.37;79.79;99446.06;5025098;28;20034;-80
2021/05/16 03:00:16;;;;;;;2.03;1.20;;;;;;;10.40;79.17;99446.00;5037257;28;20057;-80
2021/05/16 03:02:41;;;;;;;3.13;1.30;;;;;;;10.41;79.58;99448.63;5024983;28;20018;-79
2021/05/16 03:05:07;;;;;;;2.05;1.27;;;;;;;10.45;79.29;99447.66;5014393;28;20038;-80
2021/05/16 03:07:34;;;;;;;2.53;1.20;;;;;;;10.47;79.03;99445.81;5018525;28;20038;-80
2021/05/16 03:09:59;;;;;;;2.70;1.40;;;;;;;10.36;78.97;99447.00;5016920;28;20033;-80
2021/05/16 03:12:25;;;;;;;2.15;1.30;;;;;;;10.37;78.56;99451.34;5015929;28;20045;-80
2021/05/16 03:14:51;;;;;;;2.50;1.20;;;;;;;10.31;78.78;99447.94;5017870;28;20030;-80
2021/05/16 03:17:16;;;;;;;2.10;1.30;;;;;;;10.28;78.99;99449.81;5016659;28;20084;-80
2021/05/16 03:19:42;;;;;;;2.70;1.45;;;;;;;10.26;79.33;99454.19;5014776;28;20183;-80
2021/05/16 03:22:09;;;;;;;2.30;1.30;;;;;;;10.34;79.45;99452.28;5040374;28;20029;-80
2021/05/16 03:24:36;;;;;;;2.00;1.13;;;;;;;10.44;79.27;99447.69;5017135;28;20164;-80
2021/05/16 03:27:03;;;;;;;2.33;1.30;;;;;;;10.44;79.84;99451.19;5016120;28;20114;-80
2021/05/16 03:29:31;;;;;;;5.45;1.52;;;;;;;10.44;80.15;99445.03;5021126;28;20045;-80
2021/05/16 03:31:56;;;;;;;3.30;1.52;;;;;;;10.49;79.50;99446.66;5016582;28;20061;-80
2021/05/16 03:34:22;;;;;;;2.53;1.30;;;;;;;10.50;79.72;99448.38;5022599;28;20080;-80
2021/05/16 03:36:47;;;;;;;3.45;1.27;;;;;;;10.53;79.83;99445.72;5024221;28;20113;-80
2021/05/16 03:39:12;;;;;;;2.08;1.00;;;;;;;10.60;79.60;99449.06;5015046;28;20042;-80
2021/05/16 03:41:38;;;;;;;3.08;1.35;;;;;;;10.62;79.46;99441.13;5014122;28;20044;-80
2021/05/16 03:44:04;;;;;;;3.20;1.02;;;;;;;10.70;78.65;99445.28;5032086;28;20040;-80
2021/05/16 03:46:29;;;;;;;2.78;0.80;;;;;;;10.78;78.64;99441.63;5018160;28;20040;-80
2021/05/16 03:48:54;;;;;;;2.85;1.00;;;;;;;10.84;78.84;99438.81;5022536;28;20106;-80
2021/05/16 03:51:20;;;;;;;2.03;0.80;;;;;;;10.85;78.51;99438.78;5026360;28;20113;-80
2021/05/16 03:53:45;;;;;;;1.50;0.80;;;;;;;10.94;78.16;99441.19;5024474;28;20038;-80
2021/05/16 03:56:11;;;;;;;1.58;0.75;;;;;;;11.06;77.98;99431.25;5017613;28;20034;-80
2021/05/16 03:58:36;;;;;;;1.90;0.90;;;;;;;11.11;78.34;99434.63;5016621;28;20084;-80
2021/05/16 04:01:03;;;;;;;3.90;0.90;;;;;;;11.14;77.69;99440.69;5015061;28;20105;-80
2021/05/16 04:03:28;;;;;;;1.70;0.70;;;;;;;11.21;77.18;99441.38;5017919;28;20053;-81
2021/05/16 04:05:53;;;;;;;2.75;0.90;;;;;;;11.23;77.57;99439.56;5017300;28;20037;-80
2021/05/16 04:08:19;;;;;;;2.88;0.80;;;;;;;11.30;77.38;99438.50;5017054;28;20039;-80
2021/05/16 04:10:44;;;;;;;3.10;0.80;;;;;;;11.34;77.08;99437.53;5042588;28;20042;-80
2021/05/16 04:13:10;;;;;;;1.20;0.60;;;;;;;11.37;77.33;99436.56;5018401;28;20066;-80
2021/05/16 04:15:35;;;;;;;4.32;1.00;;;;;;;11.37;77.18;99434.81;5040406;28;20048;-80
2021/05/16 04:18:00;;;;;;;2.22;0.75;;;;;;;11.39;77.07;99440.88;5020214;28;20053;-80
2021/05/16 04:20:27;;;;;;;1.67;0.80;;;;;;;11.46;76.70;99435.47;5016516;28;20061;-81
2021/05/16 04:22:52;;;;;;;1.83;0.80;;;;;;;11.55;76.32;99436.09;5017107;28;20030;-80
2021/05/16 04:25:18;;;;;;;3.47;0.80;;;;;;;11.59;75.98;99436.84;5041641;28;20049;-80
2021/05/16 04:27:43;;;;;;;3.15;0.70;;;;;;;11.66;75.48;99443.72;5019229;28;20037;-80
2021/05/16 04:30:09;;;;;;;1.73;0.70;;;;;;;11.71;75.33;99447.09;5037921;28;20412;-80
2021/05/16 04:32:34;;;;;;;2.97;0.65;;;;;;;11.72;75.36;99448.81;5025947;28;20053;-80
2021/05/16 04:34:59;;;;;;;1.75;0.80;;;;;;;11.77;75.33;99454.84;5031225;28;20039;-80
2021/05/16 04:37:25;;;;;;;1.33;0.68;;;;;;;11.80;75.09;99454.75;5017682;28;20061;-80
2021/05/16 04:39:51;;;;;;;2.05;0.85;;;;;;;11.83;74.80;99457.31;5017441;28;20116;-81
2021/05/16 04:42:16;;;;;;;1.00;0.60;;;;;;;11.94;74.53;99458.81;5015820;28;20026;-80
2021/05/16 04:44:41;;;;;;;3.03;0.77;;;;;;;11.97;74.30;99458.72;5019085;28;20038;-80
2021/05/16 04:47:08;;;;;;;1.42;0.73;;;;;;;12.00;73.75;99467.44;5016985;28;20050;-80
2021/05/16 04:49:34;;;;;;;1.35;0.60;;;;;;;12.02;74.17;99456.81;5015617;28;20034;-80
2021/05/16 04:51:59;;;;;;;3.55;0.95;;;;;;;11.95;74.89;99461.41;5025104;28;20041;-80
2021/05/16 04:54:24;;;;;;;1.35;0.70;;;;;;;12.07;74.11;99468.13;5017775;28;20042;-80
2021/05/16 04:56:50;;;;;;;1.27;0.65;;;;;;;12.21;73.37;99471.22;5017150;28;20041;-80
2021/05/16 04:59:15;;;;;;;1.55;0.73;;;;;;;12.23;72.85;99468.53;5015733;28;20114;-80
2021/05/16 05:01:41;;;;;;;1.08;0.47;;;;;;;12.21;73.06;99462.44;5025875;28;20026;-80
2021/05/16 05:04:06;;;;;;;1.73;0.70;;;;;;;12.20;72.45;99466.84;5015893;28;20565;-80
2021/05/16 05:06:32;;;;;;;2.05;0.77;;;;;;;12.13;73.65;99472.34;5020635;28;20045;-80
2021/05/16 05:08:58;;;;;;;2.33;0.60;;;;;;;12.10;72.74;99475.94;5016228;28;20030;-81
2021/05/16 05:11:24;;;;;;;1.63;0.73;;;;;;;12.23;72.60;99471.16;5035695;28;20038;-80
2021/05/16 05:13:49;;;;;;;1.65;0.70;;;;;;;12.28;72.01;99475.41;5021317;28;20051;-80
2021/05/16 05:16:15;;;;;;;1.05;0.40;;;;;;;12.31;72.32;99479.75;5019142;28;20051;-80
2021/05/16 05:18:40;;;;;;;1.60;0.50;;;;;;;12.25;71.91;99475.50;5022239;28;20039;-80
2021/05/16 05:21:07;;;;;;;2.55;0.57;;;;;;;12.23;71.87;99481.75;5024212;28;20061;-80
2021/05/16 05:23:33;;;;;;;2.03;0.57;;;;;;;12.24;71.71;99480.84;5019274;28;20058;-80
2021/05/16 05:25:58;;;;;;;2.95;0.45;;;;;;;12.28;72.01;99485.13;5022458;28;20042;-80
2021/05/16 05:28:24;;;;;;;1.48;0.50;;;;;;;12.24;71.90;99486.16;5020529;28;20038;-80
2021/05/16 05:30:49;;;;;;;2.20;0.60;;;;;;;12.27;71.50;99483.41;5035109;28;20080;-80
2021/05/16 05:33:15;;;;;;;0.98;0.50;;;;;;;12.24;71.59;99479.06;5045312;28;20038;-80
2021/05/16 05:35:40;;;;;;;2.17;0.70;;;;;;;12.36;71.14;99488.41;5022087;28;20034;-80
2021/05/16 05:38:06;;;;;;;1.10;0.50;;;;;;;12.49;70.75;99483.63;5020554;28;20046;-80
2021/05/16 05:40:31;;;;;;;1.50;0.50;;;;;;;12.50;70.48;99490.66;5019012;28;20030;-80
2021/05/16 05:42:57;;;;;;;0.95;0.30;;;;;;;12.62;71.14;99482.31;5021282;28;20408;-80
2021/05/16 05:45:22;;;;;;;2.22;0.50;;;;;;;12.58;69.88;99482.50;5020252;28;20035;-80
2021/05/16 05:47:47;;;;;;;2.38;0.68;;;;;;;12.57;70.78;99480.72;5018585;28;20057;-80
2021/05/16 05:50:13;;;;;;;1.50;0.60;;;;;;;12.65;69.88;99479.59;5027915;28;20033;-80
2021/05/16 05:52:38;;;;;;;1.73;0.60;;;;;;;12.68;69.22;99479.50;5020988;28;20098;-80
2021/05/16 05:55:05;;;;;;;2.05;0.55;;;;;;;12.53;69.92;99490.56;5020074;28;20330;-80
2021/05/16 05:57:30;;;;;;;1.25;0.47;;;;;;;12.57;69.95;99492.19;5019263;28;20118;-80
2021/05/16 05:59:55;;;;;;;3.08;0.60;;;;;;;12.63;69.59;99485.84;5036891;28;20513;-80
2021/05/16 06:02:21;;;;;;;2.15;0.73;;;;;;;12.61;69.10;99487.69;5041178;28;20046;-80
2021/05/16 06:04:46;;;;;;;2.83;0.70;;;;;;;12.62;69.53;99490.25;5022190;28;20045;-80
2021/05/16 06:07:12;;;;;;;1.30;0.70;;;;;;;12.68;69.76;99490.09;5017799;28;20026;-80
2021/05/16 06:09:38;;;;;;;1.35;0.45;;;;;;;12.71;69.55;99490.00;5021749;28;20034;-80
2021/05/16 06:12:05;;;;;;;1.30;0.50;;;;;;;12.77;69.36;99488.06;5025612;28;20122;-80
2021/05/16 06:14:32;;;;;;;2.15;0.50;;;;;;;12.75;68.86;99489.88;5021453;28;20125;-80
2021/05/16 06:16:57;;;;;;;0.80;0.50;;;;;;;12.71;68.61;99490.00;5025078;28;20038;-80
2021/05/16 06:19:22;;;;;;;3.50;0.60;;;;;;;12.71;68.89;99484.69;5018109;28;20040;-80
2021/05/16 06:21:48;;;;;;;1.67;0.52;;;;;;;12.80;69.11;99493.25;5042968;28;20492;-80
2021/05/16 06:24:13;;;;;;;3.15;0.50;;;;;;;12.84;69.82;99502.84;5020365;28;20025;-80
2021/05/16 06:26:42;;;;;;;1.02;0.47;;;;;;;13.05;69.25;99496.00;5019286;28;20061;-80
2021/05/16 06:29:10;;;;;;;0.95;0.47;;;;;;;13.27;68.29;99498.81;5016652;28;20056;-80
2021/05/16 06:31:36;;;;;;;2.90;0.77;;;;;;;13.45;68.33;99494.69;5018145;28;20031;-80
2021/05/16 06:34:01;;;;;;;1.08;0.50;;;;;;;13.58;67.78;99491.53;5034502;28;20052;-80
2021/05/16 06:36:27;;;;;;;4.00;0.50;;;;;;;13.45;68.75;99498.19;5019047;28;20030;-80
2021/05/16 06:38:53;;;;;;;1.10;0.60;;;;;;;13.59;68.60;99500.34;5015763;28;20038;-80
2021/05/16 06:41:19;;;;;;;1.38;0.65;;;;;;;13.61;68.44;99502.97;5018583;28;20392;-80
2021/05/16 06:43:46;;;;;;;1.67;0.47;;;;;;;13.57;68.50;99497.78;5042260;28;20484;-80
2021/05/16 06:46:12;;;;;;;2.05;0.55;;;;;;;13.72;69.21;99495.50;5035600;28;20045;-80
2021/05/16 06:48:37;;;;;;;1.70;0.50;;;;;;;13.85;68.67;99499.44;5017888;28;20057;-80
2021/05/16 06:51:03;;;;;;;0.55;0.40;;;;;;;13.89;67.65;99489.59;5016698;28;20038;-80
2021/05/16 06:53:30;;;;;;;2.67;0.40;;;;;;;13.88;67.55;99496.66;5041987;28;20096;-80
2021/05/16 06:55:55;;;;;;;1.95;0.80;;;;;;;13.78;66.97;99496.16;5017458;28;20037;-81
2021/05/16 06:58:21;;;;;;;2.78;0.80;;;;;;;13.85;67.54;99493.25;5024012;28;20035;-80
2021/05/16 07:00:46;;;;;;;3.83;0.50;;;;;;;13.84;66.78;99489.75;5020217;28;20033;-80
2021/05/16 07:03:12;;;;;;;2.08;0.50;;;;;;;14.03;67.16;99485.50;5016662;28;20045;-80
2021/05/16 07:05:37;;;;;;;2.42;0.73;;;;;;;14.16;66.35;99490.34;5018162;28;20444;-80
2021/05/16 07:08:02;;;;;;;1.35;0.40;;;;;;;14.16;65.88;99490.34;5018638;28;20034;-80
2021/05/16 07:10:28;;;;;;;1.48;0.45;;;;;;;14.13;65.35;99491.34;5016549;28;20042;-80
2021/05/16 07:12:54;;;;;;;1.63;0.60;;;;;;;14.14;65.17;99485.09;5018090;28;20034;-80
2021/05/16 07:15:19;;;;;;;3.13;0.50;;;;;;;14.18;64.34;99488.53;5018672;28;20034;-80
2021/05/16 07:17:45;;;;;;;1.95;0.50;;;;;;;14.19;63.26;99482.28;5016637;28;20034;-80
2021/05/16 07:20:11;;;;;;;0.95;0.50;;;;;;;14.54;62.47;99480.97;5033941;28;20030;-80
2021/05/16 07:22:36;;;;;;;4.30;0.60;;;;;;;14.99;62.81;99479.19;5017520;28;20102;-80
2021/05/16 07:25:02;;;;;;;4.25;0.88;;;;;;;14.78;62.58;99479.13;5015907;28;20030;-80
2021/05/16 07:27:28;;;;;;;1.48;0.50;;;;;;;14.63;61.48;99479.72;5026504;28;20030;-80
2021/05/16 07:29:54;;;;;;;2.75;0.80;;;;;;;14.40;61.49;99484.09;5034740;28;20077;-80
2021/05/16 07:32:19;;;;;;;6.00;0.98;;;;;;;14.31;60.85;99484.47;5018666;28;20064;-80
2021/05/16 07:34:45;;;;;;;2.78;0.98;;;;;;;14.20;61.67;99489.31;5031139;28;20060;-80
2021/05/16 07:37:10;;;;;;;3.30;0.70;;;;;;;14.47;61.45;99490.06;5017038;28;20049;-80
2021/05/16 07:39:35;;;;;;;3.95;0.95;;;;;;;14.65;59.84;99491.16;5023283;28;20492;-80
2021/05/16 07:42:01;;;;;;;2.72;0.82;;;;;;;14.63;59.75;99482.38;5026048;28;20040;-80
2021/05/16 07:44:26;;;;;;;2.40;0.73;;;;;;;14.65;60.58;99486.72;5002187;28;20060;-80
2021/05/16 07:46:52;;;;;;;3.13;0.80;;;;;;;14.86;61.52;99492.97;5017161;28;20113;-80
2021/05/16 07:49:17;;;;;;;3.22;1.10;;;;;;;15.05;60.13;99479.78;5016774;28;20049;-81
2021/05/16 07:51:42;;;;;;;5.72;0.90;;;;;;;15.44;59.09;99463.09;5018098;28;20362;-81
2021/05/16 07:54:08;;;;;;;2.95;0.63;;;;;;;15.76;58.29;99482.97;5036846;28;20053;-80
2021/05/16 07:56:34;;;;;;;4.05;0.90;;;;;;;15.76;58.35;99469.69;5019961;28;20040;-80
2021/05/16 07:58:59;;;;;;;5.80;1.00;;;;;;;15.41;57.21;99484.50;5014393;28;20061;-80
2021/05/16 08:01:25;;;;;;;4.95;0.93;;;;;;;15.38;57.16;99474.00;5017716;28;20199;-80
2021/05/16 08:03:50;;;;;;;4.93;0.93;;;;;;;15.50;57.92;99473.44;5037310;28;20033;-80
2021/05/16 08:06:16;;;;;;;4.28;0.88;;;;;;;15.34;56.99;99470.59;5024462;28;20084;-80
2021/05/16 08:08:42;;;;;;;3.42;0.77;;;;;;;15.44;57.52;99472.88;5030326;28;20123;-81
2021/05/16 08:11:07;;;;;;;4.38;1.25;;;;;;;15.22;57.55;99468.47;5015710;28;20503;-81
2021/05/16 08:13:33;;;;;;;4.88;1.38;;;;;;;15.19;58.10;99479.19;5018416;28;20049;-81
2021/05/16 08:15:58;;;;;;;5.88;1.60;;;;;;;15.29;58.23;99480.56;5018467;28;20061;-80
2021/05/16 08:18:23;;;;;;;3.92;1.08;;;;;;;15.33;57.96;99482.16;5036317;28;20125;-81
2021/05/16 08:20:49;;;;;;;5.80;1.58;;;;;;;15.40;57.92;99481.88;5018744;28;20045;-80
2021/05/16 08:23:14;;;;;;;4.53;1.20;;;;;;;15.39;57.17;99485.50;5015201;28;20041;-80
2021/05/16 08:25:40;;;;;;;3.83;1.10;;;;;;;15.52;56.73;99478.72;5024879;28;20037;-81
2021/05/16 08:28:05;;;;;;;6.45;1.20;;;;;;;15.50;56.52;99484.09;5016049;28;20041;-81
2021/05/16 08:30:31;;;;;;;3.70;1.08;;;;;;;15.57;56.73;99479.38;5015855;28;20040;-81
2021/05/16 08:32:57;;;;;;;5.18;1.23;;;;;;;15.98;56.02;99485.56;5012831;28;20396;-80
2021/05/16 08:35:23;;;;;;;3.50;0.90;;;;;;;15.85;56.22;99478.19;5017641;28;20076;-80
2021/05/16 08:37:48;;;;;;;3.70;0.93;;;;;;;15.75;54.67;99483.06;5037737;28;20101;-81
2021/05/16 08:40:15;;;;;;;5.40;1.20;;;;;;;15.67;55.81;99490.50;5024976;28;20042;-80
2021/05/16 08:42:42;;;;;;;5.45;1.20;;;;;;;15.47;56.04;99484.22;5014067;28;20034;-81
2021/05/16 08:45:12;;;;;;;4.30;1.25;;;;;;;15.09;55.93;99492.03;5031929;28;20076;-81
2021/05/16 08:47:40;;;;;;;5.13;1.17;;;;;;;15.12;55.48;99485.72;5044424;28;20045;-81
2021/05/16 08:50:08;;;;;;;3.13;0.95;;;;;;;15.30;54.44;99487.63;5018548;28;20064;-81
2021/05/16 08:52:34;;;;;;;2.75;0.88;;;;;;;15.71;54.32;99482.31;5026415;28;20484;-81
2021/05/16 08:54:59;;;;;;;3.67;0.73;;;;;;;15.70;54.09;99488.59;5027346;28;20172;-80
2021/05/16 08:57:25;;;;;;;3.17;0.80;;;;;;;15.45;54.39;99480.75;5023234;28;20034;-80
2021/05/16 09:00:08;;;;;;;4.70;0.95;;;;;;;15.38;54.85;99484.63;5021751;28;20096;-80
2021/05/16 09:02:34;;;;;;;5.13;0.90;;;;;;;15.43;55.22;99476.44;5020371;28;20033;-81
2021/05/16 09:05:00;;;;;;;3.53;0.95;;;;;;;15.64;55.30;99485.28;5026171;28;20022;-80
2021/05/16 09:07:29;;;;;;;5.25;0.80;;;;;;;15.91;54.27;99485.91;5020607;28;20057;-81
2021/05/16 09:09:55;;;;;;;4.75;1.10;;;;;;;16.06;53.82;99477.25;5019378;28;20038;-81
2021/05/16 09:12:22;;;;;;;3.40;0.85;;;;;;;16.04;51.72;99483.56;5017272;28;20044;-81
2021/05/16 09:14:52;;;;;;;2.30;0.60;;;;;;;15.97;53.16;99483.81;5020484;28;20081;-81
2021/05/16 09:17:31;;;;;;;2.97;0.95;;;;;;;15.87;53.44;99479.00;5041401;28;20520;-81
2021/05/16 09:20:07;;;;;;;4.15;0.90;;;;;;;15.87;52.35;99486.97;5018549;28;20034;-80
2021/05/16 09:22:36;;;;;;;3.20;0.90;;;;;;;15.81;53.50;99474.81;5017116;28;20038;-80
2021/05/16 09:25:17;;;;;;;4.28;1.10;;;;;;;15.71;53.29;99478.81;5017443;28;20033;-81
2021/05/16 09:27:48;;;;;;;3.92;0.85;;;;;;;15.98;53.59;99487.34;5018912;28;20046;-80
2021/05/16 09:30:17;;;;;;;4.40;0.90;;;;;;;16.06;53.30;99498.53;5026245;28;20455;-80
2021/05/16 09:32:47;;;;;;;5.18;0.95;;;;;;;16.19;49.97;99480.19;5023241;28;20045;-81
2021/05/16 09:35:13;;;;;;;4.35;0.88;;;;;;;16.42;50.93;99485.31;5016362;28;20125;-81
2021/05/16 09:38:11;;;;;;;6.85;3.63;;;;;;;16.51;50.72;99488.50;5043517;28;20109;-81
2021/05/16 09:40:48;;;;;;;2.92;0.93;;;;;;;16.93;49.05;99488.25;5040864;28;20072;-81
2021/05/16 09:43:25;;;;;;;3.28;0.90;;;;;;;17.27;48.24;99479.44;5016979;28;20038;-81
2021/05/16 09:46:07;;;;;;;6.55;1.00;;;;;;;17.35;47.65;99491.53;5017034;28;20042;-81
2021/05/16 09:48:49;;;;;;;3.47;0.88;;;;;;;16.98;47.55;99488.91;5032589;28;20053;-81
2021/05/16 09:51:17;;;;;;;3.93;0.90;;;;;;;17.28;47.55;99474.97;5020079;28;20042;-81
2021/05/16 09:54:03;;;;;;;2.42;0.80;;;;;;;17.54;47.03;99473.66;5043368;28;20030;-81
2021/05/16 09:56:31;;;;;;;3.97;1.05;;;;;;;17.65;46.64;99481.09;5014187;28;20129;-81
2021/05/16 09:58:59;;;;;;;6.32;2.78;;;;;;;17.48;45.19;99472.16;5016949;28;20033;-81
2021/05/16 10:01:26;;;;;;;3.20;1.00;;;;;;;17.69;45.25;99472.00;5025195;28;20053;-80
2021/05/16 10:03:53;;;;;;;3.15;0.90;;;;;;;17.75;44.67;99464.50;5021427;28;20030;-80
2021/05/16 10:06:20;;;;;;;2.35;0.65;;;;;;;17.87;44.01;99464.88;5018334;28;20073;-81
2021/05/16 10:08:47;;;;;;;4.53;1.10;;;;;;;18.20;43.66;99462.16;5018854;28;20038;-81
2021/05/16 10:11:18;;;;;;;2.85;0.75;;;;;;;18.01;43.53;99459.63;5016352;28;20049;-80
2021/05/16 10:13:56;;;;;;;3.13;0.90;;;;;;;18.01;43.63;99462.31;5016991;28;20089;-81
2021/05/16 10:16:22;;;;;;;2.92;1.17;;;;;;;18.17;45.36;99460.53;5016842;28;20038;-80
2021/05/16 10:18:49;;;;;;;3.97;0.77;;;;;;;18.59;43.17;99466.25;5016603;28;20060;-80
2021/05/16 10:21:15;;;;;;;3.45;0.82;;;;;;;18.99;41.92;99453.31;5042324;28;20101;-80
2021/05/16 10:23:41;;;;;;;2.95;1.02;;;;;;;19.10;42.78;99444.66;5019242;28;20045;-80
2021/05/16 10:26:16;;;;;;;4.47;1.00;;;;;;;18.63;41.97;99446.44;5016589;28;20044;-80
2021/05/16 10:28:56;;;;;;;4.70;0.90;;;;;;;18.75;43.41;99459.13;5019664;28;20034;-80
2021/05/16 10:31:48;;;;;;;4.10;1.00;;;;;;;18.79;42.58;99455.34;5017024;28;20401;-80
2021/05/16 10:34:28;;;;;;;3.58;1.10;;;;;;;18.78;42.27;99466.09;5018746;28;20412;-80
2021/05/16 10:37:02;;;;;;;3.63;1.23;;;;;;;18.60;41.74;99462.63;5019115;28;20034;-80
2021/05/16 10:39:43;;;;;;;3.55;1.17;;;;;;;18.77;42.53;99451.88;5019069;28;20720;-80
2021/05/16 10:42:12;;;;;;;2.88;1.00;;;;;;;18.94;41.47;99452.72;5039715;28;20041;-80
2021/05/16 10:44:40;;;;;;;4.18;1.35;;;;;;;18.76;40.08;99452.84;5018201;28;20040;-80
2021/05/16 10:47:06;;;;;;;3.08;1.40;;;;;;;18.58;41.56;99453.84;5039022;28;20068;-80
2021/05/16 10:49:33;;;;;;;3.60;0.80;;;;;;;18.35;41.88;99452.47;5025504;28;20030;-80
2021/05/16 10:52:28;;;;;;;5.38;2.03;;;;;;;18.28;43.38;99449.25;5030044;28;20074;-80
2021/05/16 10:54:53;;;;;;;4.82;1.95;;;;;;;18.20;42.16;99450.63;5016701;28;20035;-80
2021/05/16 10:57:26;;;;;;;4.07;0.98;;;;;;;18.11;43.24;99444.00;5014415;28;20073;-80
2021/05/16 10:59:51;;;;;;;;;;;;;;;18.10;42.42;99429.78;5016930;28;20042;-80
2021/05/16 11:02:54;;;;;;;4.00;0.77;;;;;;;18.09;42.33;99430.72;5016249;28;19997;-80
2021/05/16 11:05:47;;;;;;;2.83;0.80;;;;;;;18.41;42.18;99420.06;5017098;28;20105;-80
2021/05/16 11:08:15;;;;;;;3.90;0.77;;;;;;;18.66;40.87;99416.00;5033063;28;20116;-80
2021/05/16 11:10:42;;;;;;;3.22;0.90;;;;;;;18.73;42.50;99420.03;5023503;28;20041;-80
2021/05/16 11:13:11;;;;;;;2.67;0.60;;;;;;;19.04;42.30;99408.44;5016701;28;20041;-80
2021/05/16 11:15:36;;;;;;;2.50;0.60;;;;;;;18.76;40.48;99412.75;5016650;28;20057;-80
2021/05/16 11:18:06;;;;;;;5.22;1.02;;;;;;;18.28;41.42;99414.53;5014623;28;20035;-80
2021/05/16 11:20:33;;;;;;;4.43;1.02;;;;;;;18.20;41.74;99413.25;5015932;28;20046;-80
2021/05/16 11:22:59;;;;;;;4.25;1.00;;;;;;;18.17;41.95;99419.63;5022622;28;20041;-80
2021/05/16 11:25:25;;;;;;;4.78;0.88;;;;;;;18.26;42.13;99416.44;5016739;28;20124;-80
2021/05/16 11:27:50;;;;;;;5.57;1.20;;;;;;;18.47;41.10;99413.50;5036485;28;20042;-80
2021/05/16 11:30:17;;;;;;;2.42;0.75;;;;;;;18.66;41.08;99411.53;5018324;28;20146;-80
2021/05/16 11:32:42;;;;;;;5.95;1.08;;;;;;;19.06;41.21;99401.22;5013684;28;20046;-80
2021/05/16 11:35:16;;;;;;;4.53;0.90;;;;;;;19.06;40.37;99406.56;5016766;28;20073;-80
2021/05/16 11:37:42;;;;;;;4.03;0.80;;;;;;;19.09;40.64;99409.03;5016107;28;20033;-80